Time,TemperatureF,DewpointF,PressureIn,WindDirection,WindDirectionDegrees,WindSpeedMPH,WindSpeedGustMPH,Humidity,HourlyPrecipIn,Conditions,Clouds,dailyrainin,SoftwareType,DateUTC
2014-07-31 00:00:00,70.7,51.1,29.88,ENE,69,0.0,0.0,50,0.00,CLR,FEW,0.00,WeatherDisplay:10.37,2014-07-31 04:00:00,
2014-07-31 00:01:00,70.4,50.9,29.88,ENE,69,0.0,0.0,50,0.00,CLR,FEW,0.00,WeatherDisplay:10.37,2014-07-31 04:01:00,
2014-07-31 00:06:00,70.5,51.0,29.88,ENE,69,0.0,0.0,50,0.00,CLR,FEW,0.00,WeatherDisplay:10.37,2014-07-31 04:06:00,
2014-07-31 00:11:00,70.2,50.7,29.88,East,83,3.7,3.7,50,0.00,CLR,FEW,0.00,WeatherDisplay:10.37,2014-07-31 04:11:00,
2014-07-31 00:16:00,70.0,50.5,29.88,East,93,1.2,0.0,50,0.00,CLR,FEW,0.00,WeatherDisplay:10.37,2014-07-31 04:16:00,
2014-07-31 00:21:00,69.9,50.4,29.88,East,93,0.0,0.0,50,0.00,CLR,FEW,0.00,WeatherDisplay:10.37,2014-07-31 04:21:00,
2014-07-31 00:26:00,69.3,49.9,29.88,East,93,0.0,0.0,50,0.00,CLR,FEW,0.00,WeatherDisplay:10.37,2014-07-31 04:26:00,
2014-07-31 00:31:00,69.6,50.1,29.88,East,93,0.0,0.1,50,0.00,CLR,FEW,0.00,WeatherDisplay:10.37,2014-07-31 04:31:00,
2014-07-31 00:36:00,69.7,50.2,29.88,East,93,0.0,0.0,50,0.00,CLR,FEW,0.00,WeatherDisplay:10.37,2014-07-31 04:36:00,
2014-07-31 00:41:00,69.2,49.8,29.88,East,93,0.0,0.0,50,0.00,CLR,FEW,0.00,WeatherDisplay:10.37,2014-07-31 04:41:00,
2014-07-31 00:46:00,69.2,49.8,29.88,ENE,73,0.0,0.0,50,0.00,CLR,FEW,0.00,WeatherDisplay:10.37,2014-07-31 04:46:00,
2014-07-31 00:51:00,68.9,49.5,29.88,ENE,73,0.0,0.0,50,0.00,CLR,FEW,0.00,WeatherDisplay:10.37,2014-07-31 04:51:00,
2014-07-31 00:56:00,68.8,49.4,29.88,ENE,73,0.0,0.0,50,0.00,CLR,FEW,0.00,WeatherDisplay:10.37,2014-07-31 04:56:00,
2014-07-31 01:01:00,68.3,48.9,29.88,ENE,73,0.0,0.0,50,0.00,CLR,FEW,0.00,WeatherDisplay:10.37,2014-07-31 05:01:00,
2014-07-31 01:06:00,68.5,49.1,29.89,ENE,73,0.0,0.0,50,0.00,CLR,FEW,0.00,WeatherDisplay:10.37,2014-07-31 05:06:00,
2014-07-31 01:11:00,68.4,49.0,29.89,ENE,73,0.0,0.0,50,0.00,CLR,FEW,0.00,WeatherDisplay:10.37,2014-07-31 05:11:00,
2014-07-31 01:16:00,68.2,48.8,29.89,ENE,73,0.0,0.0,50,0.00,CLR,FEW,0.00,WeatherDisplay:10.37,2014-07-31 05:16:00,
2014-07-31 01:21:00,68.5,49.1,29.89,ENE,73,0.0,0.0,50,0.00,CLR,FEW,0.00,WeatherDisplay:10.37,2014-07-31 05:21:00,
2014-07-31 01:26:00,68.3,48.9,29.89,ENE,73,0.0,0.0,50,0.00,CLR,FEW,0.00,WeatherDisplay:10.37,2014-07-31 05:26:00,
2014-07-31 01:31:00,68.1,48.8,29.89,ENE,73,0.0,0.0,50,0.00,CLR,FEW,0.00,WeatherDisplay:10.37,2014-07-31 05:31:00,
2014-07-31 01:36:00,68.3,48.9,29.88,ENE,73,0.0,0.0,50,0.00,CLR,FEW,0.00,WeatherDisplay:10.37,2014-07-31 05:36:00,
2014-07-31 01:41:00,68.2,48.8,29.88,ENE,73,0.0,0.0,50,0.00,CLR,FEW,0.00,WeatherDisplay:10.37,2014-07-31 05:41:00,
2014-07-31 01:46:00,67.9,48.6,29.89,ENE,73,0.0,0.0,50,0.00,CLR,FEW,0.00,WeatherDisplay:10.37,2014-07-31 05:46:00,
2014-07-31 01:51:00,67.8,48.5,29.88,ENE,73,0.0,0.0,50,0.00,CLR,FEW,0.00,WeatherDisplay:10.37,2014-07-31 05:51:00,
2014-07-31 01:56:00,67.9,48.6,29.89,ENE,73,0.0,0.0,50,0.00,CLR,FEW,0.00,WeatherDisplay:10.37,2014-07-31 05:56:00,
2014-07-31 02:01:00,68.0,48.7,29.89,ENE,73,0.0,0.0,50,0.00,CLR,FEW,0.00,WeatherDisplay:10.37,2014-07-31 06:01:00,
2014-07-31 02:06:00,67.7,48.4,29.89,ESE,121,2.3,0.0,50,0.00,CLR,FEW,0.00,WeatherDisplay:10.37,2014-07-31 06:06:00,
2014-07-31 02:11:00,67.8,48.5,29.89,ESE,121,0.0,0.0,50,0.00,CLR,FEW,0.00,WeatherDisplay:10.37,2014-07-31 06:11:00,
2014-07-31 02:16:00,67.7,48.4,29.89,ESE,121,0.0,0.0,50,0.00,CLR,FEW,0.00,WeatherDisplay:10.37,2014-07-31 06:16:00,
2014-07-31 02:21:00,67.3,48.0,29.89,ESE,121,0.0,0.0,50,0.00,CLR,FEW,0.00,WeatherDisplay:10.37,2014-07-31 06:21:00,
2014-07-31 02:26:00,67.1,47.8,29.89,ESE,121,5.3,5.3,50,0.00,CLR,FEW,0.00,WeatherDisplay:10.37,2014-07-31 06:26:00,
2014-07-31 02:31:00,67.4,48.1,29.89,ESE,107,2.8,2.8,50,0.00,CLR,FEW,0.00,WeatherDisplay:10.37,2014-07-31 06:31:00,
2014-07-31 02:36:00,67.3,48.0,29.89,ESE,102,1.4,1.7,50,0.00,CLR,FEW,0.00,WeatherDisplay:10.37,2014-07-31 06:36:00,
2014-07-31 02:41:00,67.1,47.8,29.89,ESE,110,3.5,3.5,50,0.00,CLR,FEW,0.00,WeatherDisplay:10.37,2014-07-31 06:41:00,
2014-07-31 02:46:00,67.1,47.8,29.89,ESE,109,4.6,4.6,50,0.00,CLR,FEW,0.00,WeatherDisplay:10.37,2014-07-31 06:46:00,
2014-07-31 02:51:00,67.0,47.7,29.89,East,89,0.0,0.0,50,0.00,CLR,FEW,0.00,WeatherDisplay:10.37,2014-07-31 06:51:00,
2014-07-31 02:56:00,66.6,47.4,29.89,East,89,0.0,0.0,50,0.00,CLR,FEW,0.00,WeatherDisplay:10.37,2014-07-31 06:56:00,
2014-07-31 03:01:00,66.8,47.6,29.89,ESE,106,3.0,3.0,50,0.00,CLR,FEW,0.00,WeatherDisplay:10.37,2014-07-31 07:01:00,
2014-07-31 03:06:00,66.3,47.1,29.89,ENE,76,3.1,3.1,50,0.00,CLR,FEW,0.00,WeatherDisplay:10.37,2014-07-31 07:06:00,
2014-07-31 03:11:00,66.3,47.1,29.89,ENE,65,3.5,3.5,50,0.00,CLR,FEW,0.00,WeatherDisplay:10.37,2014-07-31 07:11:00,
2014-07-31 03:16:00,66.3,47.1,29.89,ENE,76,4.6,4.6,50,0.00,CLR,FEW,0.00,WeatherDisplay:10.37,2014-07-31 07:16:00,
2014-07-31 03:21:00,66.3,47.1,29.89,ENE,72,4.6,4.6,50,0.00,CLR,FEW,0.00,WeatherDisplay:10.37,2014-07-31 07:21:00,
2014-07-31 03:26:00,66.3,47.1,29.89,SE,128,3.5,3.5,50,0.00,CLR,FEW,0.00,WeatherDisplay:10.37,2014-07-31 07:26:00,
2014-07-31 03:31:00,66.4,47.2,29.90,ENE,59,0.0,0.0,50,0.00,CLR,FEW,0.00,WeatherDisplay:10.37,2014-07-31 07:31:00,
2014-07-31 03:36:00,66.4,47.2,29.90,ENE,59,0.0,0.0,50,0.00,CLR,FEW,0.00,WeatherDisplay:10.37,2014-07-31 07:36:00,
2014-07-31 03:41:00,66.3,47.1,29.89,East,88,4.0,4.0,50,0.00,CLR,FEW,0.00,WeatherDisplay:10.37,2014-07-31 07:41:00,
2014-07-31 03:46:00,66.2,47.0,29.89,East,93,1.2,0.0,50,0.00,CLR,FEW,0.00,WeatherDisplay:10.37,2014-07-31 07:46:00,
2014-07-31 03:51:00,66.3,47.1,29.89,ENE,71,3.5,3.5,50,0.00,CLR,FEW,0.00,WeatherDisplay:10.37,2014-07-31 07:51:00,
2014-07-31 03:56:00,66.4,47.2,29.90,East,88,4.6,4.6,50,0.00,CLR,FEW,0.00,WeatherDisplay:10.37,2014-07-31 07:56:00,
2014-07-31 04:01:00,66.3,47.1,29.90,SE,124,4.6,4.6,50,0.00,CLR,FEW,0.00,WeatherDisplay:10.37,2014-07-31 08:01:00,
2014-07-31 04:06:00,66.1,46.9,29.89,East,83,4.6,4.6,50,0.00,CLR,FEW,0.00,WeatherDisplay:10.37,2014-07-31 08:06:00,
2014-07-31 04:11:00,66.1,46.9,29.89,East,79,4.6,4.6,50,0.00,CLR,FEW,0.00,WeatherDisplay:10.37,2014-07-31 08:11:00,
2014-07-31 04:16:00,66.0,46.8,29.89,East,89,3.5,3.5,50,0.00,CLR,FEW,0.00,WeatherDisplay:10.37,2014-07-31 08:16:00,
2014-07-31 04:21:00,66.1,46.9,29.89,East,99,4.6,4.6,50,0.00,CLR,FEW,0.00,WeatherDisplay:10.37,2014-07-31 08:21:00,
2014-07-31 04:26:00,66.0,46.8,29.90,East,88,3.5,3.5,50,0.00,CLR,FEW,0.00,WeatherDisplay:10.37,2014-07-31 08:26:00,
2014-07-31 04:31:00,66.0,46.8,29.90,East,89,3.5,3.5,50,0.00,CLR,FEW,0.00,WeatherDisplay:10.37,2014-07-31 08:31:00,
2014-07-31 04:36:00,66.0,46.8,29.89,East,89,4.6,4.6,50,0.00,CLR,FEW,0.00,WeatherDisplay:10.37,2014-07-31 08:36:00,
2014-07-31 04:41:00,65.9,46.7,29.90,ESE,120,1.2,0.0,50,0.00,CLR,FEW,0.00,WeatherDisplay:10.37,2014-07-31 08:41:00,
2014-07-31 04:47:00,65.6,46.5,29.90,East,93,3.2,3.2,50,0.00,CLR,FEW,0.00,WeatherDisplay:10.37,2014-07-31 08:47:00,
2014-07-31 04:52:00,65.7,46.5,29.90,East,80,2.3,0.0,50,0.00,CLR,FEW,0.00,WeatherDisplay:10.37,2014-07-31 08:52:00,
2014-07-31 04:57:00,65.4,46.3,29.90,East,80,0.0,0.0,50,0.00,CLR,FEW,0.00,WeatherDisplay:10.37,2014-07-31 08:57:00,
2014-07-31 05:02:00,65.4,46.3,29.90,East,80,0.0,0.0,50,0.00,CLR,FEW,0.00,WeatherDisplay:10.37,2014-07-31 09:02:00,
2014-07-31 05:07:00,65.2,46.1,29.90,East,80,0.0,0.0,50,0.00,CLR,FEW,0.00,WeatherDisplay:10.37,2014-07-31 09:07:00,
2014-07-31 05:12:00,65.2,46.1,29.90,East,80,0.0,0.0,50,0.00,CLR,FEW,0.00,WeatherDisplay:10.37,2014-07-31 09:12:00,
2014-07-31 05:17:00,65.0,45.9,29.91,East,80,0.0,0.0,50,0.00,CLR,FEW,0.00,WeatherDisplay:10.37,2014-07-31 09:17:00,
2014-07-31 05:22:00,64.9,45.8,29.91,ESE,102,1.2,1.2,50,0.00,CLR,FEW,0.00,WeatherDisplay:10.37,2014-07-31 09:22:00,
2014-07-31 05:27:00,64.8,45.7,29.91,ESE,102,0.0,0.0,50,0.00,CLR,FEW,0.00,WeatherDisplay:10.37,2014-07-31 09:27:00,
2014-07-31 05:32:00,64.7,45.6,29.91,ESE,102,0.0,0.0,50,0.00,CLR,FEW,0.00,WeatherDisplay:10.37,2014-07-31 09:32:00,
2014-07-31 05:37:00,64.8,45.7,29.91,ESE,102,0.0,0.0,50,0.00,CLR,FEW,0.00,WeatherDisplay:10.37,2014-07-31 09:37:00,
2014-07-31 05:42:00,64.6,45.5,29.91,ESE,102,0.0,0.0,50,0.00,CLR,FEW,0.00,WeatherDisplay:10.37,2014-07-31 09:42:00,
2014-07-31 05:47:00,64.2,45.2,29.91,ESE,102,0.0,0.0,50,0.00,CLR,FEW,0.00,WeatherDisplay:10.37,2014-07-31 09:47:00,
2014-07-31 05:52:00,64.4,45.3,29.91,ESE,102,0.0,0.0,50,0.00,CLR,FEW,0.00,WeatherDisplay:10.37,2014-07-31 09:52:00,
2014-07-31 05:57:00,64.2,45.2,29.92,ESE,102,0.0,0.0,50,0.00,CLR,FEW,0.00,WeatherDisplay:10.37,2014-07-31 09:57:00,
2014-07-31 06:02:00,64.3,45.3,29.91,ESE,102,0.0,0.0,50,0.00,CLR,FEW,0.00,WeatherDisplay:10.37,2014-07-31 10:02:00,
2014-07-31 06:07:00,64.4,45.3,29.91,ESE,102,0.0,0.0,50,0.00,CLR,FEW,0.00,WeatherDisplay:10.37,2014-07-31 10:07:00,
2014-07-31 06:12:00,64.4,45.3,29.92,ESE,102,0.0,0.0,50,0.00,CLR,FEW,0.00,WeatherDisplay:10.37,2014-07-31 10:12:00,
2014-07-31 06:17:00,64.8,45.7,29.92,ESE,102,0.0,0.0,50,0.00,CLR,FEW,0.00,WeatherDisplay:10.37,2014-07-31 10:17:00,
2014-07-31 06:22:00,64.6,45.5,29.92,ESE,102,0.0,0.0,50,0.00,CLR,FEW,0.00,WeatherDisplay:10.37,2014-07-31 10:22:00,
2014-07-31 06:27:00,64.7,45.6,29.91,ESE,102,0.0,0.0,50,0.00,CLR,FEW,0.00,WeatherDisplay:10.37,2014-07-31 10:27:00,
2014-07-31 06:32:00,64.9,45.8,29.92,ESE,102,0.0,0.0,50,0.00,CLR,FEW,0.00,WeatherDisplay:10.37,2014-07-31 10:32:00,
2014-07-31 06:37:00,64.7,45.6,29.92,ESE,102,0.0,0.0,50,0.00,CLR,FEW,0.00,WeatherDisplay:10.37,2014-07-31 10:37:00,
2014-07-31 06:42:00,64.7,45.6,29.92,ESE,102,0.0,0.0,50,0.00,CLR,FEW,0.00,WeatherDisplay:10.37,2014-07-31 10:42:00,
2014-07-31 06:47:00,65.2,46.1,29.92,ESE,102,0.0,0.0,50,0.00,CLR,FEW,0.00,WeatherDisplay:10.37,2014-07-31 10:47:00,
2014-07-31 06:52:00,65.1,46.0,29.91,ESE,102,0.0,0.0,50,0.00,CLR,FEW,0.00,WeatherDisplay:10.37,2014-07-31 10:52:00,
2014-07-31 06:57:00,65.3,46.2,29.91,ESE,102,0.0,0.0,50,0.00,CLR,FEW,0.00,WeatherDisplay:10.37,2014-07-31 10:57:00,
2014-07-31 07:02:00,65.7,46.5,29.92,ESE,102,0.0,0.0,50,0.00,CLR,FEW,0.00,WeatherDisplay:10.37,2014-07-31 11:02:00,
2014-07-31 07:07:00,65.9,46.7,29.91,ENE,66,3.5,3.5,50,0.00,CLR,FEW,0.00,WeatherDisplay:10.37,2014-07-31 11:07:00,
2014-07-31 07:12:00,66.0,46.8,29.91,East,82,3.5,3.5,50,0.00,CLR,FEW,0.00,WeatherDisplay:10.37,2014-07-31 11:12:00,
2014-07-31 07:17:00,66.9,47.6,29.92,NE,55,1.2,0.0,50,0.00,CLR,FEW,0.00,WeatherDisplay:10.37,2014-07-31 11:17:00,
2014-07-31 07:22:00,67.3,48.0,29.92,ESE,102,4.6,4.6,50,0.00,CLR,FEW,0.00,WeatherDisplay:10.37,2014-07-31 11:22:00,
2014-07-31 07:27:00,68.0,48.7,29.92,ESE,121,5.8,5.8,50,0.00,CLR,FEW,0.00,WeatherDisplay:10.37,2014-07-31 11:27:00,
2014-07-31 07:32:00,68.3,48.9,29.93,East,97,4.6,4.6,50,0.00,CLR,FEW,0.00,WeatherDisplay:10.37,2014-07-31 11:32:00,
2014-07-31 07:37:00,68.8,49.4,29.93,ESE,109,3.5,3.5,50,0.00,CLR,FEW,0.00,WeatherDisplay:10.37,2014-07-31 11:37:00,
2014-07-31 07:42:00,69.3,49.9,29.92,SE,140,5.8,5.8,50,0.00,CLR,FEW,0.00,WeatherDisplay:10.37,2014-07-31 11:42:00,
2014-07-31 07:47:00,69.2,49.8,29.92,ESE,116,1.2,1.2,50,0.00,CLR,FEW,0.00,WeatherDisplay:10.37,2014-07-31 11:47:00,
2014-07-31 07:52:00,69.3,49.9,29.92,NE,41,3.2,3.2,50,0.00,CLR,FEW,0.00,WeatherDisplay:10.37,2014-07-31 11:52:00,
2014-07-31 07:57:00,69.0,49.6,29.92,NE,54,5.8,5.8,50,0.00,CLR,FEW,0.00,WeatherDisplay:10.37,2014-07-31 11:57:00,
2014-07-31 08:02:00,69.3,49.9,29.93,ESE,110,4.6,4.6,50,0.00,CLR,FEW,0.00,WeatherDisplay:10.37,2014-07-31 12:02:00,
2014-07-31 08:07:00,69.5,50.0,29.93,East,83,6.9,6.9,50,0.00,CLR,FEW,0.00,WeatherDisplay:10.37,2014-07-31 12:07:00,
2014-07-31 08:12:00,69.7,50.2,29.93,ESE,102,8.6,8.6,50,0.00,CLR,FEW,0.00,WeatherDisplay:10.37,2014-07-31 12:12:00,
2014-07-31 08:17:00,69.7,50.2,29.93,South,185,3.5,3.5,50,0.00,CLR,FEW,0.00,WeatherDisplay:10.37,2014-07-31 12:17:00,
2014-07-31 08:22:00,69.9,50.4,29.93,SSE,157,2.7,2.7,50,0.00,CLR,FEW,0.00,WeatherDisplay:10.37,2014-07-31 12:22:00,
2014-07-31 08:27:00,70.0,50.5,29.93,ESE,119,7.0,7.0,50,0.00,CLR,FEW,0.00,WeatherDisplay:10.37,2014-07-31 12:27:00,
2014-07-31 08:32:00,69.8,50.3,29.93,SSE,147,6.9,6.9,50,0.00,CLR,FEW,0.00,WeatherDisplay:10.37,2014-07-31 12:32:00,
2014-07-31 08:37:00,69.7,50.2,29.93,SSW,209,9.2,9.2,50,0.00,CLR,FEW,0.00,WeatherDisplay:10.37,2014-07-31 12:37:00,
2014-07-31 08:42:00,69.6,50.1,29.93,SE,136,10.3,10.3,50,0.00,CLR,FEW,0.00,WeatherDisplay:10.37,2014-07-31 12:42:00,
2014-07-31 08:47:00,69.4,49.9,29.93,ESE,110,5.8,5.8,50,0.00,CLR,FEW,0.00,WeatherDisplay:10.37,2014-07-31 12:47:00,
2014-07-31 08:52:00,68.5,49.1,29.93,SE,136,9.2,9.2,50,0.03,RA,FEW,0.03,WeatherDisplay:10.37,2014-07-31 12:52:00,
2014-07-31 08:57:00,67.8,48.5,29.93,ESE,121,5.8,5.8,50,0.03,RA,FEW,0.03,WeatherDisplay:10.37,2014-07-31 12:57:00,
2014-07-31 09:02:00,67.4,48.1,29.93,SSE,150,6.5,6.5,50,0.03,,FEW,0.03,WeatherDisplay:10.37,2014-07-31 13:02:00,
2014-07-31 09:07:00,67.7,48.4,29.93,ESE,106,5.8,5.8,50,0.03,CLR,FEW,0.03,WeatherDisplay:10.37,2014-07-31 13:07:00,
2014-07-31 09:12:00,68.0,48.7,29.93,East,96,2.3,2.3,50,0.03,CLR,FEW,0.03,WeatherDisplay:10.37,2014-07-31 13:12:00,
2014-07-31 09:17:00,68.1,48.8,29.93,East,96,3.5,3.5,50,0.03,CLR,FEW,0.03,WeatherDisplay:10.37,2014-07-31 13:17:00,
2014-07-31 09:22:00,68.0,48.7,29.93,ENE,58,3.5,3.5,50,0.03,CLR,FEW,0.03,WeatherDisplay:10.37,2014-07-31 13:22:00,
2014-07-31 09:27:00,68.3,48.9,29.92,ESE,106,5.8,5.8,50,0.03,CLR,FEW,0.03,WeatherDisplay:10.37,2014-07-31 13:27:00,
2014-07-31 09:32:00,68.5,49.1,29.92,ESE,109,4.7,4.7,50,0.03,CLR,FEW,0.03,WeatherDisplay:10.37,2014-07-31 13:32:00,
2014-07-31 09:37:00,69.0,49.6,29.92,East,92,6.9,6.9,50,0.03,CLR,FEW,0.03,WeatherDisplay:10.37,2014-07-31 13:37:00,
2014-07-31 09:42:00,70.6,51.1,29.92,East,82,6.9,6.9,50,0.03,CLR,FEW,0.03,WeatherDisplay:10.37,2014-07-31 13:42:00,
2014-07-31 09:47:00,71.1,51.5,29.92,ESE,107,9.2,9.2,50,0.03,CLR,FEW,0.03,WeatherDisplay:10.37,2014-07-31 13:47:00,
2014-07-31 09:52:00,71.3,51.7,29.92,East,97,9.2,9.2,50,0.00,CLR,FEW,0.03,WeatherDisplay:10.37,2014-07-31 13:52:00,
2014-07-31 09:57:00,71.3,51.7,29.92,SSE,168,10.4,10.4,50,0.00,CLR,FEW,0.03,WeatherDisplay:10.37,2014-07-31 13:57:00,
2014-07-31 10:02:00,71.4,51.8,29.92,ESE,119,8.1,8.1,50,0.00,CLR,FEW,0.03,WeatherDisplay:10.37,2014-07-31 14:02:00,
2014-07-31 10:07:00,71.8,52.2,29.92,SE,133,10.4,10.4,50,0.00,CLR,FEW,0.03,WeatherDisplay:10.37,2014-07-31 14:07:00,
2014-07-31 10:12:00,72.3,52.6,29.92,East,83,11.5,11.5,50,0.00,CLR,FEW,0.03,WeatherDisplay:10.37,2014-07-31 14:12:00,
2014-07-31 10:17:00,72.9,53.2,29.92,East,92,11.6,11.6,50,0.00,CLR,FEW,0.03,WeatherDisplay:10.37,2014-07-31 14:17:00,
2014-07-31 10:22:00,72.8,53.1,29.92,ESE,109,11.5,11.5,50,0.00,CLR,FEW,0.03,WeatherDisplay:10.37,2014-07-31 14:22:00,
2014-07-31 10:27:00,73.0,53.3,29.92,SE,141,9.2,9.2,50,0.00,CLR,FEW,0.03,WeatherDisplay:10.37,2014-07-31 14:27:00,
2014-07-31 10:32:00,73.2,53.4,29.92,ENE,72,6.9,6.9,50,0.00,CLR,FEW,0.03,WeatherDisplay:10.37,2014-07-31 14:32:00,
2014-07-31 10:37:00,73.3,53.5,29.92,SSE,155,10.4,10.4,50,0.00,CLR,FEW,0.03,WeatherDisplay:10.37,2014-07-31 14:37:00,
2014-07-31 10:42:00,74.1,54.3,29.92,SSE,154,6.9,6.9,50,0.00,CLR,FEW,0.03,WeatherDisplay:10.37,2014-07-31 14:42:00,
2014-07-31 10:47:00,74.4,54.5,29.92,ESE,103,11.5,11.5,50,0.00,CLR,FEW,0.03,WeatherDisplay:10.37,2014-07-31 14:47:00,
2014-07-31 10:52:00,74.9,55.0,29.92,SSE,160,10.4,10.4,50,0.00,CLR,FEW,0.03,WeatherDisplay:10.37,2014-07-31 14:52:00,
2014-07-31 10:57:00,74.8,54.9,29.92,ESE,106,8.1,8.1,50,0.00,CLR,FEW,0.03,WeatherDisplay:10.37,2014-07-31 14:57:00,
2014-07-31 11:02:00,75.8,55.8,29.92,SE,133,6.9,6.9,50,0.00,CLR,FEW,0.03,WeatherDisplay:10.37,2014-07-31 15:02:00,
2014-07-31 11:07:00,76.2,56.2,29.92,SSE,158,12.7,12.7,50,0.00,CLR,FEW,0.03,WeatherDisplay:10.37,2014-07-31 15:07:00,
2014-07-31 11:12:00,76.2,56.2,29.92,SSE,151,4.3,4.3,50,0.00,CLR,FEW,0.03,WeatherDisplay:10.37,2014-07-31 15:12:00,
2014-07-31 11:17:00,76.3,56.3,29.92,SE,137,10.9,10.9,50,0.00,CLR,FEW,0.03,WeatherDisplay:10.37,2014-07-31 15:17:00,
2014-07-31 11:22:00,76.0,56.0,29.91,ENE,59,11.5,11.5,50,0.00,CLR,FEW,0.03,WeatherDisplay:10.37,2014-07-31 15:22:00,
2014-07-31 11:27:00,76.4,56.4,29.91,SE,128,12.7,12.7,50,0.00,CLR,FEW,0.03,WeatherDisplay:10.37,2014-07-31 15:27:00,
2014-07-31 11:32:00,76.9,56.8,29.91,SSE,147,11.5,11.5,50,0.00,CLR,FEW,0.03,WeatherDisplay:10.37,2014-07-31 15:32:00,
2014-07-31 11:37:00,77.3,57.2,29.91,SE,143,13.3,13.3,50,0.00,CLR,FEW,0.03,WeatherDisplay:10.37,2014-07-31 15:37:00,
2014-07-31 11:42:00,78.0,57.9,29.91,ESE,109,13.8,13.8,50,0.00,CLR,FEW,0.03,WeatherDisplay:10.37,2014-07-31 15:42:00,
2014-07-31 11:47:00,78.1,57.9,29.91,East,99,12.7,12.7,50,0.00,CLR,FEW,0.03,WeatherDisplay:10.37,2014-07-31 15:47:00,
2014-07-31 11:52:00,78.5,58.3,29.91,ESE,114,13.8,13.8,50,0.00,CLR,FEW,0.03,WeatherDisplay:10.37,2014-07-31 15:52:00,
2014-07-31 11:57:00,78.2,58.0,29.91,ESE,121,12.7,12.7,50,0.00,CLR,FEW,0.03,WeatherDisplay:10.37,2014-07-31 15:57:00,
2014-07-31 12:02:00,78.4,58.2,29.91,East,95,13.8,13.8,50,0.00,CLR,FEW,0.03,WeatherDisplay:10.37,2014-07-31 16:02:00,
2014-07-31 12:07:00,78.9,58.7,29.91,ENE,73,12.7,12.7,50,0.00,CLR,FEW,0.03,WeatherDisplay:10.37,2014-07-31 16:07:00,
2014-07-31 12:12:00,79.4,59.1,29.91,East,79,11.5,11.5,50,0.00,CLR,FEW,0.03,WeatherDisplay:10.37,2014-07-31 16:12:00,
2014-07-31 12:17:00,78.8,58.6,29.91,East,92,12.7,12.7,50,0.00,CLR,FEW,0.03,WeatherDisplay:10.37,2014-07-31 16:17:00,
2014-07-31 12:22:00,79.0,58.8,29.91,ENE,75,13.8,13.8,50,0.00,CLR,FEW,0.03,WeatherDisplay:10.37,2014-07-31 16:22:00,
2014-07-31 12:27:00,79.3,59.0,29.91,SSE,151,12.7,12.7,50,0.00,CLR,FEW,0.03,WeatherDisplay:10.37,2014-07-31 16:27:00,
2014-07-31 12:32:00,78.9,58.7,29.91,ESE,114,13.8,13.8,50,0.00,CLR,FEW,0.03,WeatherDisplay:10.37,2014-07-31 16:32:00,
2014-07-31 12:37:00,79.0,58.8,29.91,ESE,104,12.7,12.7,50,0.00,CLR,FEW,0.03,WeatherDisplay:10.37,2014-07-31 16:37:00,
2014-07-31 12:42:00,79.4,59.1,29.91,SE,144,13.7,13.7,50,0.00,CLR,FEW,0.03,WeatherDisplay:10.37,2014-07-31 16:42:00,
2014-07-31 12:47:00,79.7,59.4,29.90,SSE,147,15.0,15.0,50,0.00,CLR,FEW,0.03,WeatherDisplay:10.37,2014-07-31 16:47:00,
2014-07-31 12:52:00,80.4,60.1,29.90,SSE,162,13.8,13.8,50,0.00,CLR,FEW,0.03,WeatherDisplay:10.37,2014-07-31 16:52:00,
2014-07-31 12:57:00,80.3,60.0,29.90,East,96,16.1,16.1,50,0.00,CLR,FEW,0.03,WeatherDisplay:10.37,2014-07-31 16:57:00,
2014-07-31 13:02:00,80.5,60.1,29.90,East,89,11.5,11.5,50,0.00,CLR,FEW,0.03,WeatherDisplay:10.37,2014-07-31 17:02:00,
2014-07-31 13:07:00,80.9,60.5,29.90,East,85,10.4,10.4,50,0.00,CLR,FEW,0.03,WeatherDisplay:10.37,2014-07-31 17:07:00,
2014-07-31 13:12:00,80.4,60.1,29.90,ESE,116,15.0,15.0,50,0.00,CLR,FEW,0.03,WeatherDisplay:10.37,2014-07-31 17:12:00,
2014-07-31 13:17:00,80.2,59.9,29.90,SSE,154,10.4,10.4,50,0.00,CLR,FEW,0.03,WeatherDisplay:10.37,2014-07-31 17:17:00,
2014-07-31 13:22:00,80.5,60.1,29.90,East,100,12.7,12.7,50,0.00,CLR,FEW,0.03,WeatherDisplay:10.37,2014-07-31 17:22:00,
2014-07-31 13:27:00,81.2,60.8,29.90,SE,140,12.7,12.7,50,0.00,CLR,FEW,0.03,WeatherDisplay:10.37,2014-07-31 17:27:00,
2014-07-31 13:32:00,81.5,61.1,29.90,SE,137,15.0,15.0,50,0.00,CLR,FEW,0.03,WeatherDisplay:10.37,2014-07-31 17:32:00,
2014-07-31 13:37:00,81.2,60.8,29.90,SE,141,11.5,11.5,50,0.00,CLR,FEW,0.03,WeatherDisplay:10.37,2014-07-31 17:37:00,
2014-07-31 13:42:00,80.5,60.1,29.90,SE,130,15.0,15.0,50,0.00,CLR,FEW,0.03,WeatherDisplay:10.37,2014-07-31 17:42:00,
2014-07-31 13:47:00,80.9,60.5,29.90,SSE,167,15.0,15.0,50,0.00,CLR,FEW,0.03,WeatherDisplay:10.37,2014-07-31 17:47:00,
2014-07-31 13:52:00,81.5,61.1,29.90,SE,127,13.9,13.9,50,0.00,CLR,FEW,0.03,WeatherDisplay:10.37,2014-07-31 17:52:00,
2014-07-31 13:57:00,81.5,61.1,29.90,ESE,110,17.3,17.3,50,0.00,CLR,FEW,0.03,WeatherDisplay:10.37,2014-07-31 17:57:00,
2014-07-31 14:02:00,81.3,60.9,29.90,ESE,103,16.1,16.1,50,0.00,CLR,FEW,0.03,WeatherDisplay:10.37,2014-07-31 18:02:00,
2014-07-31 14:07:00,81.7,61.2,29.90,ESE,113,9.2,9.2,50,0.00,CLR,FEW,0.03,WeatherDisplay:10.37,2014-07-31 18:07:00,
2014-07-31 14:12:00,82.9,62.4,29.90,East,99,11.5,11.5,50,0.00,CLR,FEW,0.03,WeatherDisplay:10.37,2014-07-31 18:12:00,
2014-07-31 14:17:00,82.5,62.0,29.90,SE,137,11.5,11.5,50,0.00,CLR,FEW,0.03,WeatherDisplay:10.37,2014-07-31 18:17:00,
2014-07-31 14:22:00,82.2,61.7,29.90,SSE,167,11.5,11.5,50,0.00,CLR,FEW,0.03,WeatherDisplay:10.37,2014-07-31 18:22:00,
2014-07-31 14:27:00,81.5,61.1,29.89,ESE,103,12.7,12.7,50,0.00,CLR,FEW,0.03,WeatherDisplay:10.37,2014-07-31 18:27:00,
2014-07-31 14:32:00,81.3,60.9,29.89,SSE,152,11.5,11.5,50,0.00,CLR,FEW,0.03,WeatherDisplay:10.37,2014-07-31 18:32:00,
2014-07-31 14:37:00,82.1,61.6,29.89,NE,48,9.2,9.2,50,0.00,CLR,FEW,0.03,WeatherDisplay:10.37,2014-07-31 18:37:00,
2014-07-31 14:42:00,82.3,61.8,29.89,ESE,102,10.4,10.4,50,0.00,CLR,FEW,0.03,WeatherDisplay:10.37,2014-07-31 18:42:00,
2014-07-31 14:47:00,82.7,62.2,29.90,East,88,12.7,12.7,50,0.00,CLR,FEW,0.03,WeatherDisplay:10.37,2014-07-31 18:47:00,
2014-07-31 14:53:00,82.9,62.4,29.90,ESE,112,10.8,10.8,50,0.00,CLR,FEW,0.03,WeatherDisplay:10.37,2014-07-31 18:53:00,
2014-07-31 14:58:00,82.4,61.9,29.89,East,99,15.0,15.0,50,0.00,CLR,FEW,0.03,WeatherDisplay:10.37,2014-07-31 18:58:00,
2014-07-31 15:03:00,82.5,62.0,29.89,East,82,9.2,9.2,50,0.00,CLR,FEW,0.03,WeatherDisplay:10.37,2014-07-31 19:03:00,
2014-07-31 15:08:00,82.3,61.8,29.90,SSE,155,9.2,9.2,50,0.00,CLR,FEW,0.03,WeatherDisplay:10.37,2014-07-31 19:08:00,
2014-07-31 15:13:00,81.9,61.4,29.89,ENE,76,9.2,9.2,50,0.00,CLR,FEW,0.03,WeatherDisplay:10.37,2014-07-31 19:13:00,
2014-07-31 15:18:00,81.5,61.1,29.89,ESE,102,16.1,16.1,50,0.00,CLR,FEW,0.03,WeatherDisplay:10.37,2014-07-31 19:18:00,
2014-07-31 15:23:00,81.7,61.2,29.89,SSE,152,11.5,11.5,50,0.00,CLR,FEW,0.03,WeatherDisplay:10.37,2014-07-31 19:23:00,
2014-07-31 15:28:00,81.7,61.2,29.89,SSE,148,16.1,16.1,50,0.00,CLR,FEW,0.03,WeatherDisplay:10.37,2014-07-31 19:28:00,
2014-07-31 15:33:00,82.0,61.5,29.89,SE,127,10.4,10.4,50,0.00,CLR,FEW,0.03,WeatherDisplay:10.37,2014-07-31 19:33:00,
2014-07-31 15:38:00,81.6,61.2,29.90,NE,49,13.8,13.8,50,0.00,CLR,FEW,0.03,WeatherDisplay:10.37,2014-07-31 19:38:00,
2014-07-31 15:43:00,81.7,61.2,29.89,NNE,31,9.2,9.2,50,0.00,CLR,FEW,0.03,WeatherDisplay:10.37,2014-07-31 19:43:00,
2014-07-31 15:48:00,81.1,60.7,29.89,NNE,30,11.5,11.5,50,0.00,CLR,FEW,0.03,WeatherDisplay:10.37,2014-07-31 19:48:00,